createdAt,value
2017-12-29T00:01:41.042Z,99495.16
2017-12-29T00:04:12.675Z,99502.91
2017-12-29T00:06:45.307Z,99494.34
2017-12-29T00:09:17.921Z,99495.62
2017-12-29T00:11:50.639Z,99500.50
2017-12-29T00:14:22.366Z,99496.64
2017-12-29T00:16:58.959Z,99514.23
2017-12-29T00:19:29.810Z,99511.25
2017-12-29T00:22:02.230Z,99507.08
2017-12-29T00:24:34.956Z,99506.66
2017-12-29T00:27:10.143Z,99508.36
2017-12-29T00:29:41.797Z,99505.19
2017-12-29T00:32:12.649Z,99507.22
2017-12-29T00:34:42.322Z,99507.58
2017-12-29T00:37:15.328Z,99506.33
2017-12-29T00:39:46.520Z,99495.72
2017-12-29T00:42:18.565Z,99504.64
2017-12-29T00:44:51.632Z,99492.47
2017-12-29T00:47:24.597Z,99481.20
2017-12-29T00:49:57.504Z,99484.95
2017-12-29T00:52:31.926Z,99481.91
2017-12-29T00:55:04.728Z,99479.86
2017-12-29T00:57:40.249Z,99478.56
2017-12-29T01:00:11.810Z,99483.71
2017-12-29T01:02:43.438Z,99476.97
2017-12-29T01:05:13.605Z,99478.79
2017-12-29T01:07:45.598Z,99479.16
2017-12-29T01:10:16.397Z,99480.37
2017-12-29T01:12:48.117Z,99480.35
2017-12-29T01:15:19.316Z,99477.31
2017-12-29T01:17:51.120Z,99468.50
2017-12-29T01:20:24.070Z,99471.59
2017-12-29T01:22:57.337Z,99468.45
2017-12-29T01:25:30.176Z,99463.63
2017-12-29T01:28:00.813Z,99466.34
2017-12-29T01:30:33.949Z,99468.66
2017-12-29T01:33:07.383Z,99468.20
2017-12-29T01:35:37.466Z,99466.16
2017-12-29T01:38:09.322Z,99472.28
2017-12-29T01:40:39.331Z,99467.33
2017-12-29T01:43:12.078Z,99466.44
2017-12-29T01:45:43.153Z,99466.41
2017-12-29T01:48:16.731Z,99472.69
2017-12-29T01:50:49.069Z,99471.00
2017-12-29T01:53:19.135Z,99474.30
2017-12-29T01:55:49.474Z,99472.11
2017-12-29T01:58:19.608Z,99474.12
2017-12-29T02:00:49.943Z,99474.50
2017-12-29T02:03:22.414Z,99479.47
2017-12-29T02:05:56.521Z,99474.36
2017-12-29T02:08:30.561Z,99474.09
2017-12-29T02:11:03.478Z,99472.69
2017-12-29T02:13:38.179Z,99479.27
2017-12-29T02:16:12.431Z,99474.66
2017-12-29T02:18:46.056Z,99477.51
2017-12-29T02:21:21.176Z,99489.01
2017-12-29T02:23:54.026Z,99484.21
2017-12-29T02:26:28.181Z,99492.61
2017-12-29T02:29:02.116Z,99482.76
2017-12-29T02:31:36.616Z,99487.95
2017-12-29T02:34:12.052Z,99487.88
2017-12-29T02:36:46.374Z,99486.18
2017-12-29T02:39:19.034Z,99492.23
2017-12-29T02:41:53.745Z,99488.39
2017-12-29T02:44:27.921Z,99481.35
2017-12-29T02:47:02.899Z,99482.19
2017-12-29T02:49:36.954Z,99481.64
2017-12-29T02:54:42.270Z,99478.56
2017-12-29T02:57:15.135Z,99489.87
2017-12-29T02:59:46.968Z,99480.08
2017-12-29T03:02:20.135Z,99478.29
2017-12-29T03:04:52.440Z,99479.11
2017-12-29T03:07:26.371Z,99471.90
2017-12-29T03:09:59.743Z,99474.42
2017-12-29T03:12:33.593Z,99476.60
2017-12-29T03:15:06.028Z,99478.38
2017-12-29T03:17:35.752Z,99478.77
2017-12-29T03:20:09.780Z,99475.77
2017-12-29T03:22:40.341Z,99483.45
2017-12-29T03:25:12.974Z,99489.82
2017-12-29T03:27:42.895Z,99484.47
2017-12-29T03:30:16.841Z,99478.98
2017-12-29T03:32:48.880Z,99478.27
2017-12-29T03:35:19.492Z,99480.61
2017-12-29T03:37:48.895Z,99482.97
2017-12-29T03:40:21.562Z,99482.91
2017-12-29T03:42:54.651Z,99481.26
2017-12-29T03:45:25.992Z,99481.73
2017-12-29T03:47:57.820Z,99484.20
2017-12-29T03:50:33.273Z,99476.89
2017-12-29T03:53:04.369Z,99471.09
2017-12-29T03:55:37.087Z,99468.48
2017-12-29T03:58:09.829Z,99476.94
2017-12-29T04:00:42.567Z,99485.02
2017-12-29T04:03:14.620Z,99480.50
2017-12-29T04:08:25.409Z,99472.52
2017-12-29T04:10:55.981Z,99488.23
2017-12-29T04:13:25.901Z,99486.01
2017-12-29T04:15:55.743Z,99477.97
2017-12-29T04:18:25.747Z,99479.70
2017-12-29T04:20:57.763Z,99476.20
2017-12-29T04:23:28.213Z,99477.16
2017-12-29T04:28:35.980Z,99484.82
2017-12-29T04:31:06.066Z,99484.00
2017-12-29T04:33:37.732Z,99486.19
2017-12-29T04:36:07.435Z,99486.79
2017-12-29T04:38:37.398Z,99493.25
2017-12-29T04:41:08.471Z,99483.50
2017-12-29T04:43:38.714Z,99494.52
2017-12-29T04:46:09.140Z,99489.44
2017-12-29T04:48:39.861Z,99490.50
2017-12-29T04:51:12.340Z,99484.18
2017-12-29T04:53:44.547Z,99481.66
2017-12-29T04:56:16.360Z,99483.00
2017-12-29T04:58:50.198Z,99481.35
2017-12-29T05:01:21.885Z,99475.98
2017-12-29T05:03:54.007Z,99477.98
2017-12-29T05:06:24.012Z,99482.28
2017-12-29T05:08:56.592Z,99487.66
2017-12-29T05:11:26.597Z,99487.72
2017-12-29T05:13:58.726Z,99486.31
2017-12-29T05:16:31.406Z,99493.09
2017-12-29T05:19:03.955Z,99491.61
2017-12-29T05:21:36.046Z,99485.33
2017-12-29T05:24:08.387Z,99491.57
2017-12-29T05:26:41.971Z,99489.98
2017-12-29T05:29:14.008Z,99482.41
2017-12-29T05:31:44.942Z,99495.75
2017-12-29T05:34:17.171Z,99491.97
2017-12-29T05:36:48.204Z,99494.97
2017-12-29T05:39:22.828Z,99499.27
2017-12-29T05:41:52.612Z,99505.16
2017-12-29T05:44:22.450Z,99507.34
2017-12-29T05:46:53.533Z,99500.92
2017-12-29T05:49:23.366Z,99504.77
2017-12-29T05:51:57.426Z,99510.70
2017-12-29T05:54:30.128Z,99513.20
2017-12-29T05:57:03.000Z,99509.83
2017-12-29T05:59:33.508Z,99512.52
2017-12-29T06:02:03.740Z,99517.96
2017-12-29T06:04:35.371Z,99517.37
2017-12-29T06:07:09.442Z,99519.31
2017-12-29T06:09:41.398Z,99524.34
2017-12-29T06:14:50.732Z,99526.45
2017-12-29T06:17:26.160Z,99529.09
2017-12-29T06:19:56.857Z,99526.07
2017-12-29T06:22:27.521Z,99527.29
2017-12-29T06:24:57.574Z,99526.91
2017-12-29T06:27:29.052Z,99526.95
2017-12-29T06:30:00.685Z,99526.60
2017-12-29T06:32:33.134Z,99530.42
2017-12-29T06:35:03.084Z,99526.95
2017-12-29T06:40:13.477Z,99526.44
2017-12-29T06:42:47.867Z,99531.55
2017-12-29T06:45:18.296Z,99534.55
2017-12-29T06:47:52.269Z,99532.44
2017-12-29T06:50:24.172Z,99529.93
2017-12-29T06:52:54.640Z,99525.44
2017-12-29T06:55:25.077Z,99523.69
2017-12-29T06:57:56.587Z,99522.42
2017-12-29T07:00:30.647Z,99537.50
2017-12-29T07:03:01.116Z,99530.30
2017-12-29T07:05:32.046Z,99529.47
2017-12-29T07:08:05.105Z,99535.64
2017-12-29T07:10:37.542Z,99527.86
2017-12-29T07:13:11.852Z,99528.37
2017-12-29T07:15:44.256Z,99531.26
2017-12-29T07:18:19.761Z,99530.88
2017-12-29T07:20:53.812Z,99535.63
2017-12-29T07:23:29.271Z,99529.56
2017-12-29T07:26:02.923Z,99530.09
2017-12-29T07:28:35.686Z,99539.33
2017-12-29T07:31:08.791Z,99528.71
2017-12-29T07:33:41.024Z,99532.45
2017-12-29T07:36:11.630Z,99538.70
2017-12-29T07:38:41.094Z,99539.77
2017-12-29T07:41:11.027Z,99536.69
2017-12-29T07:43:40.434Z,99532.12
2017-12-29T07:46:10.848Z,99532.14
2017-12-29T07:48:43.520Z,99537.34
2017-12-29T07:51:13.932Z,99535.69
2017-12-29T07:53:43.973Z,99532.75
2017-12-29T07:56:14.504Z,99529.28
2017-12-29T07:58:45.141Z,99530.91
2017-12-29T08:01:17.778Z,99524.30
2017-12-29T08:03:47.442Z,99529.81
2017-12-29T08:06:22.150Z,99533.50
2017-12-29T08:08:53.922Z,99531.89
2017-12-29T08:11:28.557Z,99528.81
2017-12-29T08:14:01.311Z,99537.50
2017-12-29T08:19:06.700Z,99543.36
2017-12-29T08:21:35.665Z,99534.77
2017-12-29T08:26:40.926Z,99528.95
2017-12-29T08:29:10.269Z,99532.61
2017-12-29T08:31:39.803Z,99533.90
2017-12-29T08:34:08.887Z,99532.74
2017-12-29T08:36:37.808Z,99528.43
2017-12-29T08:39:07.038Z,99525.01
2017-12-29T08:41:37.002Z,99527.55
2017-12-29T08:44:05.884Z,99526.28
2017-12-29T08:46:35.957Z,99528.39
2017-12-29T08:49:05.039Z,99525.19
2017-12-29T08:51:33.957Z,99526.76
2017-12-29T08:54:08.237Z,99515.25
2017-12-29T08:56:38.921Z,99522.66
2017-12-29T08:59:08.034Z,99514.20
2017-12-29T09:01:39.075Z,99520.42
2017-12-29T09:04:08.189Z,99523.71
2017-12-29T09:06:37.162Z,99517.51
2017-12-29T09:09:06.992Z,99522.63
2017-12-29T09:11:36.791Z,99516.97
2017-12-29T09:14:05.881Z,99509.84
2017-12-29T09:16:38.122Z,99509.70
2017-12-29T09:19:07.452Z,99499.17
2017-12-29T09:21:38.740Z,99500.70
2017-12-29T09:24:09.898Z,99493.78
2017-12-29T09:26:41.611Z,99500.47
2017-12-29T09:29:13.854Z,99497.98
2017-12-29T09:31:43.631Z,99496.25
2017-12-29T09:34:12.684Z,99490.72
2017-12-29T09:36:41.844Z,99486.62
2017-12-29T09:39:11.634Z,99485.53
2017-12-29T09:41:40.801Z,99481.64
2017-12-29T09:44:12.164Z,99477.47
2017-12-29T09:46:41.661Z,99473.71
2017-12-29T09:49:10.752Z,99480.32
2017-12-29T09:54:14.470Z,99467.29
2017-12-29T09:56:43.348Z,99464.70
2017-12-29T09:59:13.733Z,99467.14
2017-12-29T10:01:43.015Z,99458.27
2017-12-29T10:04:16.246Z,99453.52
2017-12-29T10:06:45.269Z,99461.44
2017-12-29T10:09:14.252Z,99461.27
2017-12-29T10:14:17.684Z,99444.52
2017-12-29T10:16:46.609Z,99449.90
2017-12-29T10:19:16.590Z,99446.91
2017-12-29T10:21:45.612Z,99443.65
2017-12-29T10:24:14.578Z,99443.61
2017-12-29T10:26:43.682Z,99451.79
2017-12-29T10:29:12.719Z,99451.52
2017-12-29T10:31:41.725Z,99446.11
2017-12-29T10:34:12.333Z,99451.50
2017-12-29T10:36:42.007Z,99453.09
2017-12-29T10:39:11.574Z,99451.54
2017-12-29T10:41:41.439Z,99457.24
2017-12-29T10:44:10.527Z,99456.80
2017-12-29T10:46:39.610Z,99448.52
2017-12-29T10:49:08.738Z,99442.58
2017-12-29T10:51:37.782Z,99427.13
2017-12-29T10:54:07.427Z,99438.16
2017-12-29T10:56:37.147Z,99435.52
2017-12-29T10:59:06.329Z,99430.28
2017-12-29T11:01:35.741Z,99428.19
2017-12-29T11:04:04.797Z,99427.71
2017-12-29T11:06:34.008Z,99429.91
2017-12-29T11:09:03.215Z,99438.41
2017-12-29T11:11:33.140Z,99436.27
2017-12-29T11:14:02.234Z,99430.47
2017-12-29T11:16:31.358Z,99436.73
2017-12-29T11:19:01.294Z,99434.27
2017-12-29T11:21:30.257Z,99425.09
2017-12-29T11:23:59.363Z,99434.05
2017-12-29T11:26:29.305Z,99426.86
2017-12-29T11:28:58.648Z,99427.45
2017-12-29T11:31:27.849Z,99426.05
2017-12-29T11:33:57.146Z,99426.47
2017-12-29T11:36:30.269Z,99426.42
2017-12-29T11:39:00.178Z,99422.75
2017-12-29T11:41:29.671Z,99434.31
2017-12-29T11:43:58.560Z,99437.48
2017-12-29T11:46:31.338Z,99433.06
2017-12-29T11:49:00.436Z,99431.14
2017-12-29T11:51:29.718Z,99434.65
2017-12-29T11:54:00.607Z,99428.11
2017-12-29T11:56:29.586Z,99443.27
2017-12-29T11:58:59.198Z,99439.55
2017-12-29T12:01:28.421Z,99448.91
2017-12-29T12:03:58.204Z,99447.70
2017-12-29T12:06:27.130Z,99448.20
2017-12-29T12:08:56.343Z,99445.48
2017-12-29T12:11:25.369Z,99443.14
2017-12-29T12:13:54.505Z,99446.98
2017-12-29T12:16:23.564Z,99448.64
2017-12-29T12:18:54.436Z,99443.92
2017-12-29T12:21:23.891Z,99434.54
2017-12-29T12:23:53.009Z,99440.87
2017-12-29T12:26:22.058Z,99435.44
2017-12-29T12:28:51.402Z,99446.66
2017-12-29T12:31:21.178Z,99458.42
2017-12-29T12:33:50.051Z,99463.69
2017-12-29T12:36:19.033Z,99465.17
2017-12-29T12:38:50.668Z,99450.69
2017-12-29T12:41:19.723Z,99432.44
2017-12-29T12:43:52.264Z,99422.91
2017-12-29T12:46:22.044Z,99426.48
2017-12-29T12:48:53.153Z,99423.05
2017-12-29T12:51:25.718Z,99435.49
2017-12-29T12:53:55.585Z,99440.81
2017-12-29T12:56:24.631Z,99434.80
2017-12-29T12:58:54.466Z,99440.64
2017-12-29T13:01:23.612Z,99456.61
2017-12-29T13:03:52.615Z,99456.57
2017-12-29T13:06:22.776Z,99455.62
2017-12-29T13:08:54.328Z,99460.73
2017-12-29T13:11:24.171Z,99463.88
2017-12-29T13:13:53.027Z,99463.42
2017-12-29T13:16:22.201Z,99461.04
2017-12-29T13:18:52.972Z,99471.06
2017-12-29T13:21:22.203Z,99469.86
2017-12-29T13:23:51.133Z,99474.19
2017-12-29T13:26:21.810Z,99467.25
2017-12-29T13:28:50.853Z,99470.09
2017-12-29T13:31:20.923Z,99480.19
2017-12-29T13:33:50.535Z,99477.94
2017-12-29T13:36:19.844Z,99482.53
2017-12-29T13:38:49.128Z,99482.44
2017-12-29T13:41:18.213Z,99478.27
2017-12-29T13:43:48.082Z,99483.51
2017-12-29T13:46:17.142Z,99475.36
2017-12-29T13:48:47.007Z,99478.80
2017-12-29T13:51:16.232Z,99488.91
2017-12-29T13:53:45.707Z,99491.61
2017-12-29T13:56:14.814Z,99487.23
2017-12-29T13:58:44.514Z,99492.83
2017-12-29T14:01:15.141Z,99487.80
2017-12-29T14:03:47.126Z,99488.24
2017-12-29T14:06:18.297Z,99483.95
2017-12-29T14:08:53.884Z,99488.13
2017-12-29T14:11:24.383Z,99492.22
2017-12-29T14:13:53.595Z,99488.99
2017-12-29T14:16:23.153Z,99485.66
2017-12-29T14:18:52.432Z,99482.25
2017-12-29T14:21:22.414Z,99481.38
2017-12-29T14:23:52.371Z,99473.75
2017-12-29T14:26:21.318Z,99477.12
2017-12-29T14:28:50.220Z,99472.36
2017-12-29T14:31:22.970Z,99480.69
2017-12-29T14:33:52.009Z,99482.73
2017-12-29T14:36:21.320Z,99491.80
2017-12-29T14:38:50.750Z,99485.03
2017-12-29T14:41:20.353Z,99478.59
2017-12-29T14:43:50.009Z,99484.09
2017-12-29T14:46:19.747Z,99483.75
2017-12-29T14:48:48.714Z,99481.22
2017-12-29T14:51:17.678Z,99479.27
2017-12-29T14:53:53.988Z,99485.47
2017-12-29T14:56:23.299Z,99475.34
2017-12-29T14:58:52.402Z,99487.56
2017-12-29T15:01:23.715Z,99492.22
2017-12-29T15:03:52.764Z,99490.42
2017-12-29T15:06:22.081Z,99492.04
2017-12-29T15:08:51.660Z,99494.72
2017-12-29T15:11:21.556Z,99492.05
2017-12-29T15:13:50.661Z,99499.60
2017-12-29T15:16:20.415Z,99506.67
2017-12-29T15:18:49.566Z,99501.91
2017-12-29T15:21:18.499Z,99505.23
2017-12-29T15:23:48.371Z,99507.36
2017-12-29T15:26:17.558Z,99508.91
2017-12-29T15:28:46.674Z,99513.23
2017-12-29T15:31:16.670Z,99511.83
2017-12-29T15:33:45.627Z,99517.77
2017-12-29T15:36:14.756Z,99515.34
2017-12-29T15:38:43.681Z,99511.98
2017-12-29T15:41:12.586Z,99516.48
2017-12-29T15:43:41.857Z,99512.36
2017-12-29T15:46:14.939Z,99516.27
2017-12-29T15:48:44.146Z,99518.48
2017-12-29T15:51:14.145Z,99521.17
2017-12-29T15:53:43.471Z,99526.36
2017-12-29T15:56:13.469Z,99525.62
2017-12-29T15:58:43.918Z,99523.54
2017-12-29T16:01:26.214Z,99525.55
2017-12-29T16:03:55.716Z,99521.30
2017-12-29T16:06:24.770Z,99531.10
2017-12-29T16:08:55.260Z,99525.49
2017-12-29T16:11:24.469Z,99529.45
2017-12-29T16:13:53.466Z,99532.50
2017-12-29T16:16:25.389Z,99530.03
2017-12-29T16:18:54.772Z,99525.00
2017-12-29T16:21:23.708Z,99521.72
2017-12-29T16:26:26.912Z,99515.00
2017-12-29T16:28:56.038Z,99513.28
2017-12-29T16:31:26.464Z,99531.36
2017-12-29T16:33:55.558Z,99535.59
2017-12-29T16:36:24.629Z,99540.14
2017-12-29T16:38:53.647Z,99545.08
2017-12-29T16:41:22.544Z,99544.28
2017-12-29T16:43:52.223Z,99546.16
2017-12-29T16:46:22.156Z,99551.19
2017-12-29T16:48:51.447Z,99553.98
2017-12-29T16:51:20.682Z,99568.80
2017-12-29T16:53:50.676Z,99576.30
2017-12-29T16:56:19.588Z,99576.59
2017-12-29T16:58:49.459Z,99579.08
2017-12-29T17:01:18.744Z,99582.50
2017-12-29T17:03:48.051Z,99578.02
2017-12-29T17:06:16.967Z,99579.37
2017-12-29T17:08:46.981Z,99584.55
2017-12-29T17:11:16.188Z,99578.94
2017-12-29T17:13:46.117Z,99580.39
2017-12-29T17:16:21.670Z,99584.01
2017-12-29T17:18:50.782Z,99589.55
2017-12-29T17:21:19.638Z,99590.89
2017-12-29T17:23:48.810Z,99591.77
2017-12-29T17:26:18.717Z,99600.72
2017-12-29T17:28:55.359Z,99607.17
2017-12-29T17:31:26.644Z,99604.86
2017-12-29T17:33:55.956Z,99610.49
2017-12-29T17:36:25.185Z,99611.05
2017-12-29T17:38:54.139Z,99605.20
2017-12-29T17:41:23.380Z,99607.94
2017-12-29T17:43:52.666Z,99614.70
2017-12-29T17:46:21.513Z,99619.77
2017-12-29T17:48:50.530Z,99624.42
2017-12-29T17:51:21.575Z,99623.28
2017-12-29T17:53:51.588Z,99627.66
2017-12-29T17:56:20.895Z,99627.27
2017-12-29T17:58:50.032Z,99628.55
2017-12-29T18:01:19.075Z,99622.21
2017-12-29T18:03:49.108Z,99620.52
2017-12-29T18:06:18.300Z,99621.80
2017-12-29T18:08:48.430Z,99629.42
2017-12-29T18:11:18.019Z,99634.14
2017-12-29T18:13:49.099Z,99631.14
2017-12-29T18:16:18.784Z,99635.34
2017-12-29T18:18:48.190Z,99637.91
2017-12-29T18:21:19.934Z,99634.11
2017-12-29T18:23:51.929Z,99640.42
2017-12-29T18:26:23.289Z,99644.65
2017-12-29T18:28:57.805Z,99645.88
2017-12-29T18:31:30.010Z,99637.81
2017-12-29T18:34:03.405Z,99635.09
2017-12-29T18:36:34.389Z,99648.16
2017-12-29T18:39:03.924Z,99641.84
2017-12-29T18:41:33.569Z,99644.78
2017-12-29T18:44:05.881Z,99643.87
2017-12-29T18:46:35.376Z,99643.37
2017-12-29T18:49:05.115Z,99642.08
2017-12-29T18:51:34.458Z,99650.69
2017-12-29T18:54:03.604Z,99658.28
2017-12-29T18:56:33.226Z,99655.22
2017-12-29T19:01:36.922Z,99654.22
2017-12-29T19:04:06.124Z,99656.77
2017-12-29T19:06:35.439Z,99653.73
2017-12-29T19:09:05.874Z,99660.49
2017-12-29T19:11:35.591Z,99657.05
2017-12-29T19:14:05.179Z,99669.05
2017-12-29T19:16:35.223Z,99665.26
2017-12-29T19:19:04.617Z,99671.61
2017-12-29T19:21:36.049Z,99672.45
2017-12-29T19:24:05.459Z,99677.46
2017-12-29T19:26:34.463Z,99675.86
2017-12-29T19:29:06.090Z,99680.91
2017-12-29T19:31:35.408Z,99680.87
2017-12-29T19:34:05.772Z,99687.26
2017-12-29T19:36:37.617Z,99685.24
2017-12-29T19:39:07.135Z,99687.50
2017-12-29T19:41:37.684Z,99686.22
2017-12-29T19:44:07.849Z,99686.98
2017-12-29T19:46:36.938Z,99677.98
2017-12-29T19:49:06.250Z,99681.37
2017-12-29T19:51:35.349Z,99686.97
2017-12-29T19:54:05.239Z,99682.23
2017-12-29T19:56:35.866Z,99684.41
2017-12-29T19:59:05.908Z,99687.83
2017-12-29T20:01:37.914Z,99688.23
2017-12-29T20:04:08.340Z,99697.50
2017-12-29T20:06:37.407Z,99702.98
2017-12-29T20:09:15.426Z,99710.16
2017-12-29T20:11:45.327Z,99713.61
2017-12-29T20:14:14.734Z,99715.33
2017-12-29T20:16:44.928Z,99712.86
2017-12-29T20:19:15.268Z,99714.61
2017-12-29T20:21:45.595Z,99723.60
2017-12-29T20:24:15.299Z,99721.52
2017-12-29T20:26:45.000Z,99720.70
2017-12-29T20:29:15.034Z,99724.91
2017-12-29T20:31:45.349Z,99732.08
2017-12-29T20:34:14.470Z,99727.41
2017-12-29T20:36:44.356Z,99726.06
2017-12-29T20:39:14.236Z,99736.59
2017-12-29T20:41:44.110Z,99738.28
2017-12-29T20:44:13.664Z,99736.56
2017-12-29T20:46:42.797Z,99735.27
2017-12-29T20:49:12.228Z,99734.84
2017-12-29T20:51:41.264Z,99737.75
2017-12-29T20:54:12.115Z,99752.05
2017-12-29T20:56:41.960Z,99750.47
2017-12-29T20:59:12.007Z,99762.42
2017-12-29T21:04:16.408Z,99755.30
2017-12-29T21:06:45.472Z,99761.27
2017-12-29T21:09:17.050Z,99767.63
2017-12-29T21:11:51.878Z,99770.70
2017-12-29T21:14:21.015Z,99772.48
2017-12-29T21:16:50.001Z,99772.94
2017-12-29T21:21:53.597Z,99773.05
2017-12-29T21:24:22.686Z,99778.14
2017-12-29T21:26:52.414Z,99784.89
2017-12-29T21:29:21.719Z,99792.54
2017-12-29T21:31:51.553Z,99791.31
2017-12-29T21:34:21.602Z,99795.09
2017-12-29T21:36:51.282Z,99799.77
2017-12-29T21:39:21.007Z,99809.39
2017-12-29T21:41:51.406Z,99810.65
2017-12-29T21:44:20.367Z,99817.42
2017-12-29T21:46:50.283Z,99805.56
2017-12-29T21:49:20.098Z,99806.79
2017-12-29T21:51:49.317Z,99794.11
2017-12-29T21:54:18.613Z,99797.04
2017-12-29T21:56:53.617Z,99790.72
2017-12-29T21:59:22.911Z,99791.59
2017-12-29T22:01:52.676Z,99793.25
2017-12-29T22:06:57.994Z,99807.11
2017-12-29T22:09:28.610Z,99800.41
2017-12-29T22:11:58.444Z,99794.94
2017-12-29T22:14:30.806Z,99797.14
2017-12-29T22:16:59.697Z,99800.52
2017-12-29T22:19:28.800Z,99802.64
2017-12-29T22:21:57.708Z,99796.70
2017-12-29T22:24:27.821Z,99792.90
2017-12-29T22:26:57.358Z,99791.19
2017-12-29T22:29:27.538Z,99795.84
2017-12-29T22:31:56.534Z,99793.77
2017-12-29T22:34:25.493Z,99786.59
2017-12-29T22:36:54.575Z,99780.30
2017-12-29T22:39:23.710Z,99784.11
2017-12-29T22:41:52.603Z,99779.93
2017-12-29T22:44:21.653Z,99786.68
2017-12-29T22:46:50.866Z,99786.71
2017-12-29T22:49:19.905Z,99791.78
2017-12-29T22:51:48.926Z,99794.35
2017-12-29T22:54:17.880Z,99803.66
2017-12-29T22:56:46.695Z,99813.36
2017-12-29T22:59:15.487Z,99807.49
2017-12-29T23:01:46.302Z,99810.87
2017-12-29T23:04:15.240Z,99818.48
2017-12-29T23:06:44.136Z,99819.32
2017-12-29T23:09:13.230Z,99828.20
2017-12-29T23:11:42.015Z,99829.05
2017-12-29T23:14:10.827Z,99829.08
2017-12-29T23:16:40.540Z,99830.77
2017-12-29T23:19:09.403Z,99829.50
2017-12-29T23:21:38.236Z,99834.14
2017-12-29T23:24:07.913Z,99834.16
2017-12-29T23:26:36.752Z,99832.44
2017-12-29T23:29:05.685Z,99830.75
2017-12-29T23:34:08.700Z,99837.91
2017-12-29T23:36:37.513Z,99837.06
2017-12-29T23:39:06.431Z,99837.50
2017-12-29T23:41:35.349Z,99837.10
2017-12-29T23:44:04.212Z,99836.22
2017-12-29T23:46:33.073Z,99841.69
2017-12-29T23:49:01.867Z,99847.16
2017-12-29T23:51:31.629Z,99841.24
2017-12-29T23:54:00.503Z,99850.09
2017-12-29T23:56:29.416Z,99860.59
2017-12-29T23:58:58.251Z,99862.69
